Time;durP1;ratioP1;P1;durP2;ratioP2;P2;SDS_P1;SDS_P2;PMS_P1;PMS_P2;Temp;Humidity;BMP_temperature;BMP_pressure;BME280_temperature;BME280_humidity;BME280_pressure;Samples;Min_cycle;Max_cycle;Signal;HPM_P1;HPM_P2
2023/04/09 00:01:05;;;;;;;;;34.00;28.25;;;;;11.92;52.16;101664.69;4955733;28;45546;-61
2023/04/09 00:03:31;;;;;;;;;39.60;33.00;;;;;12.04;52.06;101690.66;4955421;28;45849;-60
2023/04/09 00:05:56;;;;;;;;;34.25;29.50;;;;;12.06;52.42;101698.69;4955564;28;45755;-59
2023/04/09 00:08:22;;;;;;;;;29.00;25.50;;;;;12.15;52.39;101696.63;4958992;28;45520;-62
2023/04/09 00:10:51;;;;;;;;;35.40;29.60;;;;;12.12;52.15;101697.06;4954326;28;45344;-62
2023/04/09 00:13:17;;;;;;;;;35.40;29.80;;;;;12.10;52.43;101699.16;4955548;28;45848;-61
2023/04/09 00:15:43;;;;;;;;;32.25;29.50;;;;;12.12;52.21;101694.31;4953990;28;45497;-60
2023/04/09 00:18:09;;;;;;;;;31.40;26.80;;;;;12.16;52.23;101695.59;4954026;28;45544;-60
2023/04/09 00:20:35;;;;;;;;;34.80;27.60;;;;;12.11;52.25;101698.09;4959033;28;45381;-60
2023/04/09 00:23:00;;;;;;;;;39.75;30.50;;;;;12.09;52.38;101684.53;4954066;28;45532;-61
2023/04/09 00:25:27;;;;;;;;;31.75;26.00;;;;;12.16;52.10;101695.59;4954482;28;45465;-59
2023/04/09 00:27:53;;;;;;;;;30.80;29.60;;;;;12.10;52.58;101685.41;4954284;28;45312;-58
2023/04/09 00:30:19;;;;;;;;;34.25;31.00;;;;;12.02;52.78;101678.09;4955759;28;45360;-60
2023/04/09 00:32:45;;;;;;;;;31.50;26.50;;;;;11.80;52.66;101651.47;4966479;28;45489;-61
2023/04/09 00:35:10;;;;;;;;;33.25;30.75;;;;;11.93;53.10;101680.13;4976414;28;45295;-61
2023/04/09 00:37:37;;;;;;;;;32.75;28.00;;;;;11.89;53.29;101678.81;4986546;28;45322;-58
2023/04/09 00:40:03;;;;;;;;;38.20;30.00;;;;;11.91;53.56;101679.50;4974539;28;45474;-59
2023/04/09 00:42:33;;;;;;;;;39.20;28.00;;;;;11.86;53.32;101671.84;4949728;28;46328;-58
2023/04/09 00:44:59;;;;;;;;;30.60;29.60;;;;;11.92;53.12;101686.69;4967693;28;45482;-62
2023/04/09 00:47:27;;;;;;;;;33.60;28.80;;;;;11.91;53.45;101674.81;4972458;28;45547;-61
2023/04/09 00:49:53;;;;;;;;;28.20;27.60;;;;;11.42;53.97;101624.22;4972833;28;45912;-61
2023/04/09 00:52:18;;;;;;;;;29.00;24.60;;;;;11.65;53.43;101639.69;4957517;28;46510;-60
2023/04/09 00:54:44;;;;;;;;;33.50;31.75;;;;;11.91;53.12;101674.81;4973276;28;45728;-62
2023/04/09 00:57:11;;;;;;;;;29.50;25.00;;;;;11.66;52.76;101622.13;4974977;28;45199;-61
2023/04/09 00:59:37;;;;;;;;;34.00;29.40;;;;;11.80;52.59;101640.47;4975054;28;45376;-63
2023/04/09 01:02:02;;;;;;;;;35.40;31.40;;;;;12.06;53.07;101677.53;4973424;28;45483;-61
2023/04/09 01:04:28;;;;;;;;;31.50;26.50;;;;;12.01;52.46;101662.66;4975015;28;45382;-62
2023/04/09 01:07:25;;;;;;;;;36.75;30.00;;;;;12.12;52.50;101672.28;4974028;28;45385;-59
2023/04/09 01:10:18;;;;;;;;;33.80;26.80;;;;;12.13;52.77;101666.59;4973159;28;45269;-61
2023/04/09 01:12:52;;;;;;;;;32.20;25.20;;;;;12.14;52.50;101664.66;4970729;28;45644;-61
2023/04/09 01:15:21;;;;;;;;;29.80;28.00;;;;;12.10;52.80;101675.22;4974730;28;45241;-61
2023/04/09 01:17:52;;;;;;;;;31.60;29.60;;;;;12.07;52.88;101670.13;4974093;28;45392;-60
2023/04/09 01:20:27;;;;;;;;;34.20;28.80;;;;;11.91;53.02;101652.81;4973771;28;45942;-62
2023/04/09 01:23:24;;;;;;;;;35.80;29.20;;;;;11.99;53.39;101673.84;4973562;28;45605;-61
2023/04/09 01:26:01;;;;;;;;;30.60;27.00;;;;;11.64;52.94;101608.59;4973875;28;45378;-61
2023/04/09 01:28:31;;;;;;;;;38.80;29.80;;;;;12.04;53.43;101662.25;4975444;28;45248;-61
2023/04/09 01:30:59;;;;;;;;;32.20;30.00;;;;;11.90;52.59;101636.53;4990250;28;45664;-63
2023/04/09 01:33:25;;;;;;;;;27.80;27.80;;;;;12.10;52.77;101669.72;4953976;28;46359;-62
2023/04/09 01:35:50;;;;;;;;;30.25;29.25;;;;;12.11;52.75;101665.91;4965499;28;45360;-61
2023/04/09 01:38:17;;;;;;;;;30.00;26.75;;;;;12.09;52.41;101657.03;5009704;28;45234;-63
2023/04/09 01:40:43;;;;;;;;;39.20;32.20;;;;;12.11;52.34;101663.16;4992987;28;45449;-61
2023/04/09 01:43:08;;;;;;;;;25.25;24.75;;;;;12.11;52.58;101656.81;5009310;28;45538;-61
2023/04/09 01:45:34;;;;;;;;;34.25;27.50;;;;;11.66;52.51;101600.16;4992609;28;45498;-60
2023/04/09 01:47:59;;;;;;;;;28.00;26.50;;;;;12.05;52.87;101661.22;4990367;28;45409;-62
2023/04/09 01:50:25;;;;;;;;;29.00;25.75;;;;;12.04;52.59;101657.63;4990706;28;45433;-60
2023/04/09 01:52:50;;;;;;;;;34.00;28.75;;;;;12.05;52.77;101663.97;4992063;28;46385;-60
2023/04/09 01:55:16;;;;;;;;;33.25;26.75;;;;;12.04;52.59;101657.63;4992512;28;45367;-61
2023/04/09 01:57:41;;;;;;;;;34.75;28.25;;;;;11.98;52.50;101641.00;5008971;28;45350;-61
2023/04/09 02:00:08;;;;;;;;;32.25;27.00;;;;;12.03;52.77;101653.19;5010535;28;45354;-62
2023/04/09 02:03:00;;;;;;;;;28.80;27.20;;;;;11.96;52.33;101643.13;4960261;28;46430;-61
2023/04/09 02:05:28;;;;;;;;;38.80;30.40;;;;;11.89;52.76;101629.31;4963481;28;45775;-60
2023/04/09 02:07:54;;;;;;;;;35.40;32.00;;;;;12.02;53.00;101640.41;4956732;28;45472;-61
2023/04/09 02:10:22;;;;;;;;;26.40;21.20;;;;;11.85;52.95;101619.75;4940645;28;45307;-61
2023/04/09 02:12:49;;;;;;;;;30.00;27.40;;;;;11.86;53.28;101616.81;4940376;28;45339;-61
2023/04/09 02:15:14;;;;;;;;;36.00;29.20;;;;;11.93;53.50;101636.97;4946445;28;45496;-62
2023/04/09 02:17:40;;;;;;;;;33.50;29.75;;;;;11.88;53.41;101644.09;4956548;28;45284;-62
2023/04/09 02:20:06;;;;;;;;;34.25;29.00;;;;;11.80;53.87;101645.13;4956743;28;45566;-60
2023/04/09 02:22:32;;;;;;;;;31.40;28.20;;;;;11.66;53.97;101617.50;4957793;28;46759;-61
2023/04/09 02:24:57;;;;;;;;;35.00;27.25;;;;;11.69;54.24;101637.41;4972312;28;46046;-61
2023/04/09 02:27:23;;;;;;;;;26.00;25.50;;;;;11.78;53.73;101637.06;4956127;28;45363;-61
2023/04/09 02:29:48;;;;;;;;;37.00;31.25;;;;;11.78;54.28;101625.19;4957835;28;45341;-61
2023/04/09 02:32:14;;;;;;;;;28.75;26.25;;;;;11.70;53.98;101620.72;4955870;28;45324;-62
2023/04/09 02:34:39;;;;;;;;;37.00;30.75;;;;;11.70;54.34;101628.97;4956092;28;45559;-61
2023/04/09 02:37:05;;;;;;;;;35.00;31.50;;;;;11.72;54.59;101626.84;4970813;28;45690;-62
2023/04/09 02:39:30;;;;;;;;;39.00;29.25;;;;;11.69;54.41;101621.72;4996575;28;45352;-61
2023/04/09 02:41:56;;;;;;;;;28.50;26.50;;;;;11.68;54.21;101622.78;4996524;28;46804;-61
2023/04/09 02:44:22;;;;;;;;;32.20;29.20;;;;;11.59;54.69;101622.06;4995264;28;45370;-61
2023/04/09 02:46:49;;;;;;;;;35.25;30.75;;;;;11.61;54.30;101620.00;5011905;28;45493;-62
2023/04/09 02:49:14;;;;;;;;;36.20;30.60;;;;;11.72;53.80;101626.00;4929386;28;45644;-61
2023/04/09 02:51:40;;;;;;;;;33.75;30.50;;;;;11.73;54.22;101617.56;4974296;28;46556;-61
2023/04/09 02:54:05;;;;;;;;;39.00;30.25;;;;;11.68;53.82;101614.53;4975777;28;45402;-62
2023/04/09 02:56:31;;;;;;;;;36.50;29.50;;;;;11.74;53.95;101618.41;4977288;28;45978;-62
2023/04/09 02:58:57;;;;;;;;;38.75;32.00;;;;;11.75;53.93;101617.34;4959463;28;45438;-62
2023/04/09 03:01:22;;;;;;;;;32.00;29.00;;;;;11.75;53.75;101612.69;4976893;28;45890;-62
2023/04/09 03:03:48;;;;;;;;;35.50;29.00;;;;;11.74;53.93;101607.41;4959152;28;45384;-61
2023/04/09 03:06:13;;;;;;;;;35.75;30.25;;;;;11.70;54.11;101608.84;4977025;28;45365;-63
2023/04/09 03:08:39;;;;;;;;;34.25;31.25;;;;;11.57;54.28;101588.44;4959194;28;45564;-61
2023/04/09 03:11:04;;;;;;;;;38.00;32.50;;;;;11.55;54.69;101608.91;4975247;28;46074;-60
2023/04/09 03:13:30;;;;;;;;;44.50;31.75;;;;;11.49;54.75;101594.06;4959300;28;45364;-61
2023/04/09 03:15:55;;;;;;;;;30.25;29.25;;;;;11.53;54.79;101595.38;4976207;28;45145;-62
2023/04/09 03:18:21;;;;;;;;;34.00;29.50;;;;;11.59;54.15;101600.06;4976719;28;45154;-62
2023/04/09 03:20:47;;;;;;;;;37.00;31.00;;;;;11.61;54.28;101602.63;4975203;28;46130;-61
2023/04/09 03:23:12;;;;;;;;;37.50;33.25;;;;;11.51;53.78;101580.97;4975215;28;45232;-61
2023/04/09 03:25:37;;;;;;;;;32.75;29.50;;;;;11.66;54.30;101598.25;4976264;28;45288;-61
2023/04/09 03:28:03;;;;;;;;;40.50;34.00;;;;;11.25;54.13;101524.72;4976304;28;45414;-60
2023/04/09 03:30:29;;;;;;;;;37.00;32.50;;;;;11.41;54.31;101562.06;4976117;28;46082;-61
2023/04/09 03:32:54;;;;;;;;;37.25;33.75;;;;;11.35;54.39;101549.97;4975845;28;45441;-60
2023/04/09 03:35:20;;;;;;;;;39.75;32.00;;;;;11.62;54.61;101596.06;4974920;28;45362;-60
2023/04/09 03:37:45;;;;;;;;;30.25;26.00;;;;;11.61;54.35;101595.25;4956918;28;45406;-61
2023/04/09 03:40:12;;;;;;;;;36.75;32.50;;;;;11.59;54.42;101594.56;4954842;28;47512;-60
2023/04/09 03:42:37;;;;;;;;;39.60;31.60;;;;;11.37;54.26;101552.53;4956002;28;45374;-61
2023/04/09 03:45:04;;;;;;;;;40.75;34.00;;;;;11.52;54.40;101589.03;4956507;28;45451;-61
2023/04/09 03:47:29;;;;;;;;;37.60;31.80;;;;;11.31;54.48;101547.81;4955147;28;45356;-61
2023/04/09 03:49:54;;;;;;;;;39.50;30.00;;;;;11.52;55.01;101586.28;4956533;28;45672;-60
2023/04/09 03:52:20;;;;;;;;;38.50;35.00;;;;;11.51;55.18;101589.22;4956147;28;45226;-60
2023/04/09 03:54:45;;;;;;;;;39.50;31.25;;;;;11.50;54.60;101587.53;4956563;28;45300;-61
2023/04/09 03:57:11;;;;;;;;;40.25;34.00;;;;;11.49;54.40;101585.81;4955620;28;45351;-60
2023/04/09 03:59:36;;;;;;;;;35.25;33.25;;;;;11.50;54.74;101584.78;4954831;28;45411;-61
2023/04/09 04:02:02;;;;;;;;;38.25;32.75;;;;;11.29;54.49;101544.41;4956509;28;45289;-61
2023/04/09 04:04:27;;;;;;;;;42.75;32.00;;;;;11.49;54.79;101583.91;4956819;28;45335;-62
2023/04/09 04:06:53;;;;;;;;;34.00;30.50;;;;;11.48;54.73;101578.63;4955543;28;45410;-61
2023/04/09 04:09:18;;;;;;;;;34.25;29.75;;;;;11.46;54.68;101576.06;4956373;28;46377;-62
2023/04/09 04:11:44;;;;;;;;;38.75;31.25;;;;;11.45;54.72;101582.63;4956191;28;45399;-61
2023/04/09 04:14:09;;;;;;;;;44.00;35.00;;;;;11.40;55.34;101568.63;4957542;28;45425;-62
2023/04/09 04:16:35;;;;;;;;;37.50;31.50;;;;;11.33;55.14;101564.94;4974435;28;45417;-60
2023/04/09 04:19:00;;;;;;;;;36.50;34.00;;;;;11.11;54.92;101526.50;4975700;28;45414;-61
2023/04/09 04:21:26;;;;;;;;;38.75;32.25;;;;;11.34;55.75;101569.41;4974245;28;45789;-61
2023/04/09 04:23:51;;;;;;;;;41.75;32.50;;;;;10.99;55.46;101531.63;4973996;28;45828;-62
2023/04/09 04:26:17;;;;;;;;;37.25;29.50;;;;;11.14;56.28;101567.31;4975406;28;45438;-61
2023/04/09 04:28:42;;;;;;;;;37.50;31.25;;;;;11.17;56.10;101568.81;4975091;28;46617;-61
2023/04/09 04:31:11;;;;;;;;;35.50;29.00;;;;;11.20;55.85;101572.00;4975568;28;45288;-61
2023/04/09 04:33:38;;;;;;;;;36.00;32.00;;;;;11.19;55.99;101581.31;4950405;28;46023;-62
2023/04/09 04:36:08;;;;;;;;;37.40;32.60;;;;;11.12;55.90;101563.91;4975715;28;45447;-62
2023/04/09 04:38:34;;;;;;;;;35.80;31.40;;;;;11.13;55.76;101579.34;5006864;28;46579;-62
2023/04/09 04:41:00;;;;;;;;;28.75;26.00;;;;;11.13;56.29;101584.84;4994830;28;45539;-62
2023/04/09 04:43:25;;;;;;;;;42.50;35.25;;;;;10.59;56.61;101496.38;4994602;28;45418;-60
2023/04/09 04:45:51;;;;;;;;;43.50;36.75;;;;;11.10;55.94;101588.00;4994948;28;45406;-62
2023/04/09 04:48:16;;;;;;;;;39.25;32.00;;;;;11.14;56.42;101591.19;4994322;28;46284;-62
2023/04/09 04:50:41;;;;;;;;;35.50;32.00;;;;;11.20;56.37;101595.91;4994695;28;45426;-61
2023/04/09 04:53:07;;;;;;;;;40.50;35.75;;;;;11.16;56.00;101581.69;4994597;28;45405;-61
2023/04/09 04:55:36;;;;;;;;;43.50;34.25;;;;;10.95;55.83;101558.66;5010107;28;45369;-62
2023/04/09 04:58:01;;;;;;;;;41.20;35.00;;;;;11.20;55.51;101596.75;4994534;28;45350;-61
2023/04/09 05:00:27;;;;;;;;;32.00;29.50;;;;;10.95;55.50;101546.81;5009770;28;45373;-62
2023/04/09 05:02:52;;;;;;;;;39.25;34.00;;;;;11.27;55.76;101587.72;4984379;28;45413;-62
2023/04/09 05:05:19;;;;;;;;;32.20;30.40;;;;;11.28;55.40;101587.53;4954383;28;45336;-62
2023/04/09 05:07:45;;;;;;;;;39.00;33.00;;;;;11.28;55.66;101590.28;4955221;28;46908;-62
2023/04/09 05:10:10;;;;;;;;;37.50;34.00;;;;;11.18;55.89;101595.25;4954048;28;45477;-60
2023/04/09 05:12:36;;;;;;;;;39.50;36.25;;;;;11.18;56.00;101603.47;4964178;28;45320;-61
2023/04/09 05:15:01;;;;;;;;;40.00;34.00;;;;;11.20;56.13;101602.25;4973833;28;45375;-61
2023/04/09 05:17:27;;;;;;;;;40.75;30.25;;;;;11.19;56.00;101606.03;4973393;28;46353;-62
2023/04/09 05:19:52;;;;;;;;;40.00;34.00;;;;;11.12;55.57;101589.47;4974694;28;45272;-62
2023/04/09 05:22:18;;;;;;;;;37.75;33.50;;;;;11.22;56.04;101600.13;4974264;28;45469;-61
2023/04/09 05:24:44;;;;;;;;;36.50;34.75;;;;;11.22;56.41;101605.63;4974848;28;45571;-61
2023/04/09 05:27:09;;;;;;;;;40.00;35.25;;;;;11.23;55.96;101609.25;4974407;28;45610;-61
2023/04/09 05:29:35;;;;;;;;;48.00;38.50;;;;;11.23;56.24;101618.34;4956560;28;45528;-61
2023/04/09 05:32:00;;;;;;;;;47.00;37.25;;;;;11.10;56.29;101594.31;4974685;28;45350;-61
2023/04/09 05:34:25;;;;;;;;;41.00;36.50;;;;;11.20;55.63;101610.47;4957777;28;45332;-61
2023/04/09 05:36:52;;;;;;;;;57.25;41.00;;;;;11.26;55.86;101614.34;4976224;28;45444;-62
2023/04/09 05:39:17;;;;;;;;;48.00;36.80;;;;;11.27;55.46;101610.56;5010573;28;45583;-62
2023/04/09 05:41:43;;;;;;;;;40.00;36.00;;;;;11.30;55.83;101609.34;4997709;28;45397;-62
2023/04/09 05:44:10;;;;;;;;;36.00;32.60;;;;;11.28;55.45;101622.41;4996179;28;45643;-62
2023/04/09 05:46:36;;;;;;;;;37.40;36.00;;;;;11.31;56.06;101622.03;5012236;28;45587;-61
2023/04/09 05:49:02;;;;;;;;;38.25;35.25;;;;;11.30;55.38;101617.56;5012235;28;46319;-61
2023/04/09 05:51:27;;;;;;;;;41.00;35.75;;;;;11.25;55.87;101602.50;4996425;28;45453;-63
2023/04/09 05:53:53;;;;;;;;;42.25;34.50;;;;;11.27;55.41;101613.31;5012701;28;45405;-61
2023/04/09 05:56:21;;;;;;;;;39.25;35.50;;;;;11.34;55.95;101618.88;4997501;28;45827;-61
2023/04/09 05:58:47;;;;;;;;;47.20;37.60;;;;;11.34;55.76;101618.88;4997170;28;45384;-62
2023/04/09 06:01:13;;;;;;;;;50.75;37.75;;;;;11.34;55.74;101625.22;5012974;28;45337;-61
2023/04/09 06:03:38;;;;;;;;;42.50;36.25;;;;;11.28;56.01;101609.53;5012510;28;45239;-61
2023/04/09 06:06:04;;;;;;;;;37.75;35.00;;;;;11.26;55.61;101619.84;4997189;28;45945;-62
2023/04/09 06:08:29;;;;;;;;;42.75;35.25;;;;;11.24;55.88;101625.56;5012553;28;45238;-62
2023/04/09 06:10:55;;;;;;;;;47.00;38.00;;;;;11.25;56.13;101632.75;4996875;28;45234;-62
2023/04/09 06:13:20;;;;;;;;;46.50;35.75;;;;;11.31;56.21;101628.34;4997293;28;45443;-62
2023/04/09 06:15:46;;;;;;;;;40.75;37.00;;;;;11.33;55.59;101629.03;4987841;28;45709;-63
2023/04/09 06:18:12;;;;;;;;;42.00;37.00;;;;;11.34;55.76;101630.72;4951263;28;45228;-62
2023/04/09 06:20:38;;;;;;;;;49.00;37.50;;;;;11.38;55.58;101632.03;4977461;28;45387;-62
2023/04/09 06:23:04;;;;;;;;;40.50;35.00;;;;;11.37;56.06;101626.75;4977507;28;45628;-62
2023/04/09 06:25:29;;;;;;;;;42.80;37.40;;;;;11.38;55.74;101625.69;4977287;28;46570;-61
2023/04/09 06:27:56;;;;;;;;;50.75;39.00;;;;;11.27;55.68;101616.06;4977454;28;45442;-59
2023/04/09 06:30:21;;;;;;;;;43.80;35.80;;;;;11.48;56.07;101639.09;4976915;28;45463;-60
2023/04/09 06:32:47;;;;;;;;;44.50;36.25;;;;;11.49;55.51;101641.63;4977334;28;45817;-61
2023/04/09 06:35:14;;;;;;;;;41.25;35.00;;;;;11.31;55.53;101611.03;4976184;28;45784;-61
2023/04/09 06:37:40;;;;;;;;;37.00;33.00;;;;;11.53;55.87;101629.22;4993894;28;45312;-62
2023/04/09 06:40:06;;;;;;;;;50.50;39.00;;;;;11.54;55.95;101630.06;4995535;28;45974;-61
2023/04/09 06:42:32;;;;;;;;;46.60;39.20;;;;;11.55;55.65;101625.41;5012042;28;45354;-61
2023/04/09 06:44:57;;;;;;;;;44.75;37.00;;;;;11.57;55.42;101626.09;4976174;28;46356;-60
2023/04/09 06:47:23;;;;;;;;;40.25;33.00;;;;;11.59;55.62;101630.31;4956799;28;45754;-61
2023/04/09 06:49:48;;;;;;;;;47.75;37.00;;;;;11.60;55.17;101634.78;4955827;28;45465;-61
2023/04/09 06:52:14;;;;;;;;;46.75;38.00;;;;;11.57;55.26;101624.16;4976686;28;45440;-59
2023/04/09 06:54:39;;;;;;;;;42.75;35.50;;;;;11.62;55.83;101637.31;4976504;28;46418;-61
2023/04/09 06:57:06;;;;;;;;;49.00;38.00;;;;;11.53;55.80;101617.38;4975454;28;45448;-61
2023/04/09 06:59:32;;;;;;;;;43.00;35.00;;;;;11.64;55.63;101635.25;4976813;28;45433;-60
2023/04/09 07:01:58;;;;;;;;;53.50;42.00;;;;;11.66;55.83;101638.63;4977440;28;45560;-62
2023/04/09 07:04:24;;;;;;;;;40.00;35.00;;;;;11.66;55.61;101634.00;4976030;28;47346;-61
2023/04/09 07:06:51;;;;;;;;;39.75;36.50;;;;;11.57;55.46;101615.09;4977821;28;45236;-61
2023/04/09 07:09:17;;;;;;;;;45.40;38.00;;;;;11.73;55.50;101642.28;4977635;28;45212;-62
2023/04/09 07:11:43;;;;;;;;;51.25;41.50;;;;;11.76;55.34;101638.31;4993232;28;45579;-61
2023/04/09 07:14:08;;;;;;;;;48.00;38.25;;;;;11.79;55.25;101637.91;4976914;28;45837;-61
2023/04/09 07:16:34;;;;;;;;;42.00;37.75;;;;;11.72;55.27;101621.34;4977172;28;45369;-60
2023/04/09 07:18:59;;;;;;;;;43.25;35.50;;;;;11.85;55.19;101633.53;4977546;28;45384;-62
2023/04/09 07:21:27;;;;;;;;;43.50;38.25;;;;;11.88;55.40;101636.72;4977561;28;45384;-61
2023/04/09 07:23:53;;;;;;;;;44.40;37.40;;;;;11.91;55.12;101632.72;4970572;28;47615;-61
2023/04/09 07:26:18;;;;;;;;;46.75;37.50;;;;;11.87;55.47;101629.53;4986804;28;45808;-61
2023/04/09 07:28:44;;;;;;;;;47.00;37.25;;;;;11.90;55.58;101636.53;4975401;28;45711;-60
2023/04/09 07:31:10;;;;;;;;;51.00;39.75;;;;;11.71;55.25;101603.16;4974723;28;45645;-62
2023/04/09 07:33:36;;;;;;;;;47.80;37.00;;;;;11.85;55.30;101630.78;4973535;28;46316;-61
2023/04/09 07:36:02;;;;;;;;;49.25;36.50;;;;;11.89;55.29;101632.91;4975983;28;45442;-61
2023/04/09 07:38:28;;;;;;;;;49.00;37.25;;;;;11.87;55.44;101636.91;4976945;28;45782;-62
2023/04/09 07:40:54;;;;;;;;;42.80;37.20;;;;;11.89;55.50;101640.31;4975935;28;45464;-61
2023/04/09 07:43:20;;;;;;;;;46.50;37.25;;;;;11.92;55.54;101635.25;4974635;28;45429;-61
2023/04/09 07:45:48;;;;;;;;;42.00;36.00;;;;;11.97;55.70;101639.31;4974157;28;45890;-63
2023/04/09 07:48:14;;;;;;;;;38.00;33.40;;;;;12.03;55.36;101642.16;4973651;28;45346;-62
2023/04/09 07:50:40;;;;;;;;;38.00;33.00;;;;;11.37;55.47;101536.88;4973326;28;45330;-61
2023/04/09 07:53:05;;;;;;;;;41.50;36.75;;;;;11.96;55.33;101618.38;4973599;28;45752;-60
2023/04/09 07:55:31;;;;;;;;;39.00;34.50;;;;;12.12;55.14;101642.84;4954385;28;45391;-61
2023/04/09 07:57:56;;;;;;;;;45.25;35.00;;;;;12.09;55.23;101640.50;4953842;28;45250;-61
2023/04/09 08:00:22;;;;;;;;;41.00;37.00;;;;;12.11;55.20;101646.66;4972361;28;45457;-61
2023/04/09 08:02:48;;;;;;;;;45.50;33.25;;;;;12.17;55.22;101637.59;4956339;28;46941;-62
2023/04/09 08:05:14;;;;;;;;;36.25;30.25;;;;;12.15;55.17;101644.34;4973435;28;45723;-61
2023/04/09 08:07:40;;;;;;;;;44.25;35.25;;;;;12.03;55.13;101616.50;4974871;28;45469;-61
2023/04/09 08:10:06;;;;;;;;;39.75;35.50;;;;;12.25;54.83;101635.75;4990866;28;45623;-61
2023/04/09 08:12:31;;;;;;;;;41.75;34.75;;;;;12.33;54.80;101635.59;4974686;28;46175;-63
2023/04/09 08:14:57;;;;;;;;;33.00;32.75;;;;;12.41;54.66;101634.56;4972590;28;45499;-60
2023/04/09 08:17:23;;;;;;;;;45.00;33.75;;;;;12.46;54.61;101634.81;4973918;28;45384;-60
2023/04/09 08:19:49;;;;;;;;;49.60;36.60;;;;;12.51;54.40;101639.72;4957336;28;45624;-61
2023/04/09 08:22:14;;;;;;;;;40.25;32.50;;;;;12.54;53.99;101648.41;4940775;28;46534;-61
2023/04/09 08:24:42;;;;;;;;;39.50;31.25;;;;;12.54;54.57;101640.16;4981179;28;46414;-61
2023/04/09 08:27:08;;;;;;;;;41.80;34.40;;;;;12.66;54.26;101640.47;4993766;28;45499;-62
2023/04/09 08:29:34;;;;;;;;;41.20;34.20;;;;;12.70;53.82;101649.16;4948133;28;45423;-61
2023/04/09 08:32:00;;;;;;;;;41.00;36.00;;;;;12.74;53.95;101642.16;4922999;28;47797;-62
2023/04/09 08:34:26;;;;;;;;;39.25;34.00;;;;;12.74;53.82;101647.69;4955185;28;45402;-61
2023/04/09 08:36:51;;;;;;;;;38.20;33.00;;;;;12.78;54.07;101637.97;4946028;28;45446;-65
2023/04/09 08:39:20;;;;;;;;;37.25;30.50;;;;;12.82;54.16;101630.97;4965490;28;45453;-61
2023/04/09 08:41:47;;;;;;;;;39.60;35.80;;;;;12.87;54.07;101633.13;4961119;28;46632;-61
2023/04/09 08:44:12;;;;;;;;;45.80;37.60;;;;;12.91;53.73;101639.06;4940477;28;45301;-61
2023/04/09 08:46:38;;;;;;;;;36.50;33.50;;;;;12.84;53.70;101612.34;4956838;28;45394;-62
2023/04/09 08:49:03;;;;;;;;;34.50;29.25;;;;;13.02;53.40;101635.72;4973175;28;45903;-62
2023/04/09 08:51:30;;;;;;;;;39.00;30.75;;;;;13.08;53.32;101629.38;4955163;28;46653;-62
2023/04/09 08:53:56;;;;;;;;;36.20;31.20;;;;;13.22;52.75;101629.41;4950030;28;45832;-61
2023/04/09 08:56:22;;;;;;;;;34.40;29.00;;;;;13.26;53.03;101615.03;4954354;28;45472;-61
2023/04/09 08:58:48;;;;;;;;;36.60;34.00;;;;;13.42;52.45;101622.06;4921410;28;45653;-59
2023/04/09 09:01:27;;;;;;;;;33.25;28.75;;;;;13.57;52.31;101623.78;4952173;28;47863;-61
2023/04/09 09:03:57;;;;;;;;;44.40;34.80;;;;;13.68;51.79;101612.13;4969330;28;45367;-61
2023/04/09 09:06:25;;;;;;;;;36.80;33.80;;;;;13.80;51.55;101619.75;4957963;28;45522;-61
2023/04/09 09:09:05;;;;;;;;;37.00;30.00;;;;;13.89;51.24;101618.50;4954285;28;45776;-61
2023/04/09 09:11:34;;;;;;;;;37.60;32.40;;;;;13.91;50.95;101610.84;4954865;28;46787;-61
2023/04/09 09:14:01;;;;;;;;;33.40;28.80;;;;;13.98;50.40;101599.78;4955949;28;45639;-62
2023/04/09 09:16:26;;;;;;;;;43.60;32.40;;;;;13.96;50.44;101577.94;4958318;28;45443;-61
2023/04/09 09:18:52;;;;;;;;;40.00;32.75;;;;;14.22;50.46;101617.63;4956471;28;45678;-60
2023/04/09 09:21:18;;;;;;;;;37.50;32.25;;;;;14.32;50.38;101608.91;4970508;28;45634;-60
2023/04/09 09:23:44;;;;;;;;;39.20;30.40;;;;;14.42;49.88;101615.88;4993679;28;45734;-60
2023/04/09 09:26:26;;;;;;;;;32.50;29.50;;;;;14.47;49.87;101618.84;4975335;28;45391;-61
2023/04/09 09:28:52;;;;;;;;;25.20;22.40;;;;;14.55;49.94;101617.72;4973195;28;45487;-63
2023/04/09 09:31:18;;;;;;;;;37.00;33.00;;;;;14.61;49.66;101606.69;4955493;28;45875;-61
2023/04/09 09:33:44;;;;;;;;;30.80;27.00;;;;;14.50;49.29;101582.47;4955717;28;45501;-61
2023/04/09 09:36:09;;;;;;;;;38.25;30.75;;;;;14.72;49.12;101610.66;4955949;28;45470;-61
2023/04/09 09:38:57;;;;;;;;;29.75;25.50;;;;;14.67;49.08;101580.06;4979960;28;45390;-62
2023/04/09 09:41:23;;;;;;;;;35.60;27.40;;;;;14.81;48.81;101588.34;4976361;28;45934;-62
2023/04/09 09:43:50;;;;;;;;;27.75;24.50;;;;;14.94;48.33;101584.69;4975460;28;45847;-60
2023/04/09 09:46:15;;;;;;;;;27.00;22.00;;;;;15.06;47.89;101595.88;4955737;28;45396;-62
2023/04/09 09:48:41;;;;;;;;;21.00;19.00;;;;;15.09;47.72;101587.16;4957407;28;45319;-62
2023/04/09 09:51:11;;;;;;;;;28.75;23.75;;;;;15.15;47.48;101586.22;4970155;28;46201;-61
2023/04/09 09:53:37;;;;;;;;;20.60;18.60;;;;;15.23;47.78;101587.91;4956936;28;45354;-61
2023/04/09 09:56:09;;;;;;;;;19.20;16.80;;;;;15.22;46.88;101588.97;4956795;28;45410;-62
2023/04/09 09:58:44;;;;;;;;;19.00;18.40;;;;;15.28;47.47;101586.19;4939383;28;45430;-62
2023/04/09 10:01:12;;;;;;;;;21.00;20.20;;;;;15.29;46.38;101589.78;4956746;28;45836;-62
2023/04/09 10:03:38;;;;;;;;;22.40;20.00;;;;;15.11;46.64;101560.13;4948406;28;45931;-62
2023/04/09 10:06:04;;;;;;;;;24.40;18.40;;;;;15.29;46.39;101582.34;4958125;28;45763;-62
2023/04/09 10:08:32;;;;;;;;;18.20;17.80;;;;;15.39;46.27;101580.97;4939824;28;45378;-61
2023/04/09 10:10:57;;;;;;;;;24.20;20.00;;;;;15.40;46.12;101566.94;4955289;28;47611;-62
2023/04/09 10:13:31;;;;;;;;;24.00;18.25;;;;;15.51;46.46;101583.88;4939717;28;45691;-61
2023/04/09 10:15:57;;;;;;;;;18.80;17.80;;;;;15.58;45.34;101577.22;4967197;28;45421;-61
2023/04/09 10:18:23;;;;;;;;;23.40;19.60;;;;;15.59;45.56;101570.59;4975208;28;45386;-61
2023/04/09 10:20:55;;;;;;;;;14.75;14.25;;;;;15.57;45.34;101566.38;4975336;28;46005;-62
2023/04/09 10:23:30;;;;;;;;;19.20;17.00;;;;;15.51;45.87;101542.38;4957905;28;45969;-61
2023/04/09 10:25:56;;;;;;;;;17.20;16.20;;;;;15.31;45.10;101499.97;4969243;28;46689;-60
2023/04/09 10:28:21;;;;;;;;;17.00;15.25;;;;;15.82;44.99;101568.28;4973522;28;45689;-63
2023/04/09 10:30:47;;;;;;;;;19.50;16.50;;;;;15.73;44.61;101540.06;4960951;28;45386;-62
2023/04/09 10:33:14;;;;;;;;;22.50;20.75;;;;;15.89;44.77;101548.88;4962013;28;45316;-61
2023/04/09 10:35:41;;;;;;;;;23.00;18.60;;;;;16.05;44.08;101567.66;4975762;28;45414;-62
2023/04/09 10:38:07;;;;;;;;;23.00;19.00;;;;;15.95;42.98;101562.66;4983927;28;45792;-61
2023/04/09 10:40:33;;;;;;;;;16.80;16.60;;;;;16.07;43.29;101562.75;4968761;28;45795;-62
2023/04/09 10:42:58;;;;;;;;;24.25;19.00;;;;;16.08;43.08;101555.28;4969580;28;45428;-63
2023/04/09 10:45:25;;;;;;;;;23.50;20.75;;;;;16.25;43.03;101552.75;4973459;28;45806;-61
2023/04/09 10:47:51;;;;;;;;;26.80;21.00;;;;;16.33;43.65;101558.00;4975372;28;46041;-62
2023/04/09 10:50:26;;;;;;;;;23.00;21.00;;;;;16.44;43.54;101563.84;4957583;28;45674;-62
2023/04/09 10:52:56;;;;;;;;;15.00;14.80;;;;;16.40;42.49;101519.97;4973829;28;45690;-61
2023/04/09 10:55:40;;;;;;;;;20.80;18.20;;;;;16.63;42.08;101557.22;4975107;28;45749;-61
2023/04/09 10:58:07;;;;;;;;;25.40;20.00;;;;;16.65;41.92;101549.50;4948556;28;46411;-61
2023/04/09 11:00:39;;;;;;;;;27.00;22.00;;;;;16.76;42.24;101545.09;4986072;28;46490;-63
2023/04/09 11:03:09;;;;;;;;;17.80;16.20;;;;;16.88;41.46;101549.84;4975138;28;45443;-62
2023/04/09 11:05:38;;;;;;;;;20.20;17.80;;;;;17.08;41.64;101552.38;4974750;28;45448;-62
2023/04/09 11:08:11;;;;;;;;;20.80;17.20;;;;;16.97;40.67;101511.56;4976397;28;45323;-59